createdAt,value
2018-12-15T00:00:22.633Z,97102.23
2018-12-15T00:02:49.517Z,97108.16
2018-12-15T00:05:15.408Z,97025.56
2018-12-15T00:07:44.187Z,97106.34
2018-12-15T00:10:10.217Z,97103.75
2018-12-15T00:12:39.731Z,97106.72
2018-12-15T00:15:06.188Z,97104.70
2018-12-15T00:17:34.068Z,97108.16
2018-12-15T00:19:59.989Z,97108.94
2018-12-15T00:22:25.883Z,97111.13
2018-12-15T00:24:51.725Z,97111.99
2018-12-15T00:27:17.586Z,97113.63
2018-12-15T00:29:47.040Z,97114.41
2018-12-15T00:32:12.943Z,97111.49
2018-12-15T00:34:40.811Z,97110.71
2018-12-15T00:37:06.675Z,97110.17
2018-12-15T00:39:35.764Z,97105.52
2018-12-15T00:42:01.735Z,97115.73
2018-12-15T00:44:29.403Z,97123.06
2018-12-15T00:46:55.313Z,97121.03
2018-12-15T00:49:25.189Z,97127.37
2018-12-15T00:51:51.040Z,97126.44
2018-12-15T00:54:20.222Z,97120.84
2018-12-15T00:56:46.048Z,97119.06
2018-12-15T00:59:11.961Z,97123.26
2018-12-15T01:01:37.887Z,97131.70
2018-12-15T01:04:03.912Z,97130.38
2018-12-15T01:06:30.738Z,97128.28
2018-12-15T01:08:56.646Z,97141.01
2018-12-15T01:11:26.593Z,97137.63
2018-12-15T01:13:52.463Z,97139.81
2018-12-15T01:16:21.439Z,97132.94
2018-12-15T01:18:47.347Z,97137.08
2018-12-15T01:21:15.160Z,97142.14
2018-12-15T01:23:41.018Z,97141.73
2018-12-15T01:26:10.779Z,97144.30
2018-12-15T01:28:36.676Z,97143.06
2018-12-15T01:31:04.422Z,97142.59
2018-12-15T01:33:30.335Z,97146.42
2018-12-15T01:35:56.229Z,97154.09
2018-12-15T01:38:22.183Z,97156.37
2018-12-15T01:40:48.080Z,97155.42
2018-12-15T01:43:17.337Z,97149.48
2018-12-15T01:45:43.191Z,97147.70
2018-12-15T01:48:10.992Z,97150.85
2018-12-15T01:50:36.847Z,97150.90
2018-12-15T01:53:06.572Z,97158.23
2018-12-15T01:55:32.423Z,97167.91
2018-12-15T01:58:01.581Z,97163.22
2018-12-15T02:00:27.582Z,97165.43
2018-12-15T02:02:55.287Z,97161.57
2018-12-15T02:05:21.173Z,97161.56
2018-12-15T02:07:50.990Z,97155.67
2018-12-15T02:10:16.891Z,97159.50
2018-12-15T02:12:42.767Z,97160.45
2018-12-15T02:15:08.772Z,97163.44
2018-12-15T02:17:34.652Z,97169.48
2018-12-15T02:20:03.263Z,97172.45
2018-12-15T02:22:29.119Z,97167.31
2018-12-15T02:24:56.785Z,97169.71
2018-12-15T02:27:22.635Z,97168.69
2018-12-15T02:29:51.725Z,97167.73
2018-12-15T02:32:17.722Z,97174.98
2018-12-15T02:34:45.577Z,97174.11
2018-12-15T02:37:11.443Z,97173.30
2018-12-15T02:39:40.846Z,97180.55
2018-12-15T02:42:06.742Z,97180.59
2018-12-15T02:44:35.804Z,97186.97
2018-12-15T02:47:01.789Z,97190.27
2018-12-15T02:49:27.653Z,97197.65
2018-12-15T02:51:53.864Z,97193.89
2018-12-15T02:54:20.163Z,97151.47
2018-12-15T02:56:46.621Z,97190.06
2018-12-15T02:59:12.487Z,97193.81
2018-12-15T03:01:42.213Z,97188.70
2018-12-15T03:04:08.072Z,97191.26
2018-12-15T03:06:36.009Z,97189.56
2018-12-15T03:09:01.929Z,97190.92
2018-12-15T03:11:31.225Z,97193.97
2018-12-15T03:13:57.092Z,97196.55
2018-12-15T03:16:26.486Z,97196.52
2018-12-15T03:18:53.470Z,97198.28
2018-12-15T03:21:20.434Z,97190.63
2018-12-15T03:23:46.346Z,97197.83
2018-12-15T03:26:12.218Z,97199.97
2018-12-15T03:28:38.123Z,97198.25
2018-12-15T03:31:04.108Z,97205.49
2018-12-15T03:33:33.175Z,97205.08
2018-12-15T03:35:59.104Z,97208.49
2018-12-15T03:38:27.003Z,97198.17
2018-12-15T03:40:52.869Z,97193.86
2018-12-15T03:43:23.947Z,97200.16
2018-12-15T03:45:49.846Z,97203.20
2018-12-15T03:48:16.405Z,97201.89
2018-12-15T03:50:42.299Z,97202.59
2018-12-15T03:53:11.956Z,97202.13
2018-12-15T03:55:37.891Z,97199.02
2018-12-15T03:58:05.950Z,97203.64
2018-12-15T04:00:31.837Z,97203.27
2018-12-15T04:02:57.709Z,97207.45
2018-12-15T04:05:23.594Z,97209.56
2018-12-15T04:07:49.489Z,97196.78
2018-12-15T04:10:18.591Z,97213.81
2018-12-15T04:12:44.581Z,97210.39
2018-12-15T04:15:12.365Z,97209.98
2018-12-15T04:17:38.236Z,97213.39
2018-12-15T04:20:07.136Z,97211.16
2018-12-15T04:22:33.045Z,97206.09
2018-12-15T04:25:01.308Z,97200.98
2018-12-15T04:27:27.195Z,97203.72
2018-12-15T04:29:56.392Z,97202.08
2018-12-15T04:32:23.584Z,97204.36
2018-12-15T04:34:51.208Z,97200.53
2018-12-15T04:37:17.129Z,97209.18
2018-12-15T04:39:43.033Z,97203.39
2018-12-15T04:42:08.902Z,97201.73
2018-12-15T04:44:34.823Z,97191.00
2018-12-15T04:47:03.998Z,97192.95
2018-12-15T04:49:29.871Z,97197.93
2018-12-15T04:51:57.575Z,97195.24
2018-12-15T04:54:23.452Z,97186.30
2018-12-15T04:56:51.799Z,97192.73
2018-12-15T04:59:17.773Z,97197.02
2018-12-15T05:01:47.494Z,97193.31
2018-12-15T05:04:13.391Z,97197.19
2018-12-15T05:06:42.812Z,97190.06
2018-12-15T05:09:08.823Z,97191.38
2018-12-15T05:11:36.651Z,97190.97
2018-12-15T05:14:04.924Z,97200.31
2018-12-15T05:16:31.413Z,97195.73
2018-12-15T05:18:57.332Z,97193.63
2018-12-15T05:21:23.478Z,97194.91
2018-12-15T05:23:49.348Z,97196.11
2018-12-15T05:26:16.770Z,97198.63
2018-12-15T05:28:42.711Z,97193.55
2018-12-15T05:31:08.575Z,97198.73
2018-12-15T05:33:37.357Z,97174.55
2018-12-15T05:36:07.210Z,97186.90
2018-12-15T05:38:33.295Z,97194.55
2018-12-15T05:40:59.180Z,97189.89
2018-12-15T05:43:28.305Z,97194.97
2018-12-15T05:45:54.175Z,97194.04
2018-12-15T05:48:25.082Z,97191.48
2018-12-15T05:50:49.755Z,97194.94
2018-12-15T05:53:15.641Z,97196.63
2018-12-15T05:55:41.543Z,97177.14
2018-12-15T05:58:07.686Z,97195.41
2018-12-15T06:00:33.575Z,97201.83
2018-12-15T06:02:59.463Z,97198.03
2018-12-15T06:08:00.596Z,97207.02
2018-12-15T06:10:26.499Z,97208.30
2018-12-15T06:12:52.509Z,97201.44
2018-12-15T06:15:18.510Z,97208.59
2018-12-15T06:17:44.410Z,97204.37
2018-12-15T06:20:12.164Z,97198.86
2018-12-15T06:22:38.078Z,97198.86
2018-12-15T06:25:07.798Z,97199.24
2018-12-15T06:27:33.720Z,97202.21
2018-12-15T06:29:59.721Z,97198.77
2018-12-15T06:32:25.633Z,97199.66
2018-12-15T06:34:51.528Z,97200.97
2018-12-15T06:37:18.833Z,97203.91
2018-12-15T06:39:44.800Z,97200.94
2018-12-15T06:42:14.216Z,97202.23
2018-12-15T06:44:40.190Z,97197.97
2018-12-15T06:47:09.225Z,97192.41
2018-12-15T06:49:35.354Z,97201.34
2018-12-15T06:52:02.613Z,97206.80
2018-12-15T06:54:28.517Z,97210.66
2018-12-15T06:56:57.272Z,97207.73
2018-12-15T06:59:23.203Z,97205.56
2018-12-15T07:01:52.059Z,97200.01
2018-12-15T07:04:17.989Z,97204.70
2018-12-15T07:06:43.866Z,97195.77
2018-12-15T07:09:09.763Z,97206.39
2018-12-15T07:11:35.677Z,97209.39
2018-12-15T07:14:04.609Z,97208.52
2018-12-15T07:16:30.489Z,97209.39
2018-12-15T07:18:59.495Z,97204.70
2018-12-15T07:21:25.384Z,97211.91
2018-12-15T07:23:55.106Z,97206.36
2018-12-15T07:26:21.139Z,97203.42
2018-12-15T07:28:48.944Z,97212.36
2018-12-15T07:31:14.801Z,97215.29
2018-12-15T07:33:44.500Z,97218.60
2018-12-15T07:36:13.849Z,97214.80
2018-12-15T07:38:39.742Z,97216.84
2018-12-15T07:41:05.745Z,97216.88
2018-12-15T07:43:31.640Z,97215.22
2018-12-15T07:45:57.624Z,97217.73
2018-12-15T07:48:23.536Z,97221.13
2018-12-15T07:50:49.426Z,97221.61
2018-12-15T07:53:15.310Z,97219.84
2018-12-15T07:55:44.509Z,97221.50
2018-12-15T07:58:10.553Z,97223.22
2018-12-15T08:00:40.493Z,97223.67
2018-12-15T08:03:06.317Z,97229.23
2018-12-15T08:05:35.258Z,97232.16
2018-12-15T08:08:01.138Z,97226.27
2018-12-15T08:10:30.123Z,97217.39
2018-12-15T08:12:56.039Z,97231.75
2018-12-15T08:15:24.131Z,97230.44
2018-12-15T08:17:50.045Z,97231.30
2018-12-15T08:20:15.962Z,97225.77
2018-12-15T08:22:45.485Z,96907.50
2018-12-15T08:25:11.511Z,97232.05
2018-12-15T08:27:37.371Z,97237.57
2018-12-15T08:30:06.351Z,97232.83
2018-12-15T08:32:32.251Z,97229.45
2018-12-15T08:34:58.176Z,97230.19
2018-12-15T08:37:24.113Z,97230.69
2018-12-15T08:39:50.032Z,97229.04
2018-12-15T08:42:19.259Z,97232.91
2018-12-15T08:44:45.208Z,97236.33
2018-12-15T08:47:14.843Z,97231.14
2018-12-15T08:49:40.707Z,97238.44
2018-12-15T08:52:09.684Z,97231.67
2018-12-15T08:54:35.566Z,97164.23
2018-12-15T08:57:01.488Z,97232.00
2018-12-15T08:59:27.382Z,97237.64
2018-12-15T09:01:53.315Z,97237.27
2018-12-15T09:04:20.519Z,97242.34
2018-12-15T09:06:46.404Z,97247.48
2018-12-15T09:09:16.262Z,97243.99
2018-12-15T09:11:42.142Z,97249.09
2018-12-15T09:14:11.050Z,97243.99
2018-12-15T09:16:36.954Z,97243.99
2018-12-15T09:19:11.043Z,97245.23
2018-12-15T09:21:32.683Z,97244.86
2018-12-15T09:23:58.649Z,97238.05
2018-12-15T09:26:24.536Z,97242.75
2018-12-15T09:28:53.126Z,97238.58
2018-12-15T09:31:19.107Z,97234.78
2018-12-15T09:33:45.030Z,97238.12
2018-12-15T09:36:10.968Z,97244.03
2018-12-15T09:38:36.848Z,97246.13
2018-12-15T09:41:05.761Z,97243.98
2018-12-15T09:43:31.648Z,97239.41
2018-12-15T09:46:00.169Z,97235.27
2018-12-15T09:48:26.087Z,97245.50
2018-12-15T09:50:55.494Z,97243.78
2018-12-15T09:53:21.470Z,97238.71
2018-12-15T09:55:51.275Z,97233.16
2018-12-15T09:58:17.203Z,97236.92
2018-12-15T10:00:44.920Z,97234.81
2018-12-15T10:03:10.824Z,97241.16
2018-12-15T10:05:39.836Z,97237.75
2018-12-15T10:08:05.767Z,97234.75
2018-12-15T10:10:31.663Z,97236.74
2018-12-15T10:12:57.773Z,97235.13
2018-12-15T10:15:23.801Z,97230.54
2018-12-15T10:17:50.878Z,97229.33
2018-12-15T10:20:16.755Z,97226.30
2018-12-15T10:22:45.598Z,97222.84
2018-12-15T10:25:12.125Z,97218.19
2018-12-15T10:27:41.389Z,97216.91
2018-12-15T10:33:10.072Z,97214.77
2018-12-15T10:35:35.943Z,97215.59
2018-12-15T10:38:01.887Z,97215.56
2018-12-15T10:40:27.895Z,97212.63
2018-12-15T10:42:53.786Z,97218.53
2018-12-15T10:45:19.667Z,97216.80
2018-12-15T10:47:45.551Z,97212.10
2018-12-15T10:50:11.439Z,97212.14
2018-12-15T10:52:37.390Z,97207.52
2018-12-15T10:55:05.796Z,96969.88
2018-12-15T10:57:31.690Z,97206.05
2018-12-15T10:59:57.577Z,97196.11
2018-12-15T11:02:23.494Z,97195.65
2018-12-15T11:04:49.403Z,97185.78
2018-12-15T11:07:15.314Z,97190.02
2018-12-15T11:09:41.219Z,97186.34
2018-12-15T11:12:07.090Z,97177.41
2018-12-15T11:14:32.973Z,97171.52
2018-12-15T11:16:58.864Z,97165.18
2018-12-15T11:19:24.782Z,97172.84
2018-12-15T11:21:50.692Z,97171.11
2018-12-15T11:24:16.566Z,97175.39
2018-12-15T11:26:42.428Z,97173.66
2018-12-15T11:29:08.364Z,97175.53
2018-12-15T11:31:37.434Z,97176.23
2018-12-15T11:34:03.384Z,97149.90
2018-12-15T11:36:29.304Z,97162.59
2018-12-15T11:38:55.218Z,97155.48
2018-12-15T11:41:21.197Z,97156.05
2018-12-15T11:43:47.126Z,97159.52
2018-12-15T11:46:13.064Z,97147.98
2018-12-15T11:48:39.178Z,97150.22
2018-12-15T11:51:05.030Z,97145.01
2018-12-15T11:53:30.911Z,97139.89
2018-12-15T11:55:56.971Z,97137.13
2018-12-15T11:58:23.014Z,97133.72
2018-12-15T12:00:48.904Z,97134.66
2018-12-15T12:03:14.799Z,97121.84
2018-12-15T12:05:40.704Z,97117.92
2018-12-15T12:08:06.623Z,97109.44
2018-12-15T12:10:32.557Z,97106.84
2018-12-15T12:13:02.191Z,97110.25
2018-12-15T12:15:28.123Z,97106.89
2018-12-15T12:17:55.963Z,97105.16
2018-12-15T12:20:21.940Z,97109.45
2018-12-15T12:22:50.271Z,97110.77
2018-12-15T12:25:16.270Z,97111.98
2018-12-15T12:27:47.307Z,97105.91
2018-12-15T12:30:13.198Z,97116.23
2018-12-15T12:32:40.143Z,97117.10
2018-12-15T12:35:06.168Z,97119.84
2018-12-15T12:37:32.072Z,97112.91
2018-12-15T12:39:58.014Z,97109.45
2018-12-15T12:42:24.018Z,97111.63
2018-12-15T12:44:53.072Z,97108.41
2018-12-15T12:47:19.135Z,97105.75
2018-12-15T12:49:46.752Z,97107.09
2018-12-15T12:52:12.638Z,97106.58
2018-12-15T12:54:41.189Z,97104.98
2018-12-15T12:57:07.189Z,97109.19
2018-12-15T12:59:35.894Z,97103.14
2018-12-15T13:02:01.905Z,97103.50
2018-12-15T13:04:30.996Z,97100.19
2018-12-15T13:06:56.922Z,97096.58
2018-12-15T13:11:56.167Z,97100.56
2018-12-15T13:14:22.179Z,97098.41
2018-12-15T13:16:48.096Z,97093.25
2018-12-15T13:19:13.987Z,97089.78
2018-12-15T13:21:39.912Z,97087.22
2018-12-15T13:24:05.983Z,97082.92
2018-12-15T13:26:31.896Z,97083.39
2018-12-15T13:28:57.751Z,97079.59
2018-12-15T13:31:26.622Z,97078.38
2018-12-15T13:33:52.508Z,97092.44
2018-12-15T13:36:22.189Z,97092.89
2018-12-15T13:38:48.064Z,97090.34
2018-12-15T13:41:15.900Z,97087.28
2018-12-15T13:43:41.772Z,97094.98
2018-12-15T13:46:10.408Z,97098.82
2018-12-15T13:48:36.545Z,97101.83
2018-12-15T13:51:02.657Z,97095.39
2018-12-15T13:53:28.540Z,97088.96
2018-12-15T13:55:54.566Z,97099.93
2018-12-15T13:58:24.344Z,97103.27
2018-12-15T14:00:50.194Z,97099.31
2018-12-15T14:03:17.920Z,97100.75
2018-12-15T14:05:43.779Z,97096.09
2018-12-15T14:08:13.662Z,97103.31
2018-12-15T14:10:40.171Z,97103.77
2018-12-15T14:13:07.431Z,97105.70
2018-12-15T14:15:33.326Z,97103.72
2018-12-15T14:18:01.140Z,97112.50
2018-12-15T14:20:27.007Z,97101.92
2018-12-15T14:22:55.882Z,97106.11
2018-12-15T14:25:21.807Z,97105.91
2018-12-15T14:27:47.757Z,97107.89
2018-12-15T14:30:13.643Z,97103.72
2018-12-15T14:32:39.570Z,97100.30
2018-12-15T14:35:09.483Z,97103.26
2018-12-15T14:37:35.390Z,97096.87
2018-12-15T14:40:03.761Z,97094.77
2018-12-15T14:42:29.666Z,97097.73
2018-12-15T14:44:59.017Z,97096.10
2018-12-15T14:47:24.935Z,97096.67
2018-12-15T14:49:52.738Z,97095.45
2018-12-15T14:52:18.643Z,97095.90
2018-12-15T14:54:48.958Z,97093.34
2018-12-15T14:57:16.925Z,97086.50
2018-12-15T14:59:42.853Z,97081.30
2018-12-15T15:02:08.740Z,97083.38
2018-12-15T15:04:34.646Z,97074.44
2018-12-15T15:07:00.788Z,97073.21
2018-12-15T15:09:26.751Z,97078.22
2018-12-15T15:11:53.104Z,97077.82
2018-12-15T15:14:18.975Z,97074.96
2018-12-15T15:16:48.752Z,97074.59
2018-12-15T15:19:14.717Z,97070.35
2018-12-15T15:24:17.411Z,97062.24
2018-12-15T15:26:43.272Z,97065.56
2018-12-15T15:29:09.300Z,97068.94
2018-12-15T15:31:35.335Z,97061.47
2018-12-15T15:34:01.372Z,97059.73
2018-12-15T15:36:27.261Z,97068.63
2018-12-15T15:38:53.194Z,97057.64
2018-12-15T15:41:19.057Z,97053.40
2018-12-15T15:43:44.936Z,97052.44
2018-12-15T15:46:10.825Z,97047.78
2018-12-15T15:48:40.256Z,97048.24
2018-12-15T15:51:06.192Z,97041.45
2018-12-15T15:53:34.033Z,97032.16
2018-12-15T15:55:59.925Z,97031.34
2018-12-15T15:58:29.740Z,97032.05
2018-12-15T16:00:59.708Z,97030.72
2018-12-15T16:03:25.612Z,97033.58
2018-12-15T16:05:51.494Z,97024.16
2018-12-15T16:08:17.420Z,97017.36
2018-12-15T16:10:43.345Z,97009.71
2018-12-15T16:13:12.741Z,97016.56
2018-12-15T16:15:38.611Z,97018.65
2018-12-15T16:18:04.501Z,97014.02
2018-12-15T16:20:30.375Z,97017.50
2018-12-15T16:22:56.248Z,97015.47
2018-12-15T16:25:25.482Z,97005.80
2018-12-15T16:27:51.341Z,97015.16
2018-12-15T16:30:19.261Z,97009.25
2018-12-15T16:32:45.134Z,97010.66
2018-12-15T16:35:14.957Z,96994.17
2018-12-15T16:37:40.845Z,96998.82
2018-12-15T16:40:08.061Z,96992.75
2018-12-15T16:42:33.940Z,96896.77
2018-12-15T16:45:03.323Z,96996.89
2018-12-15T16:47:29.264Z,96991.78
2018-12-15T16:49:58.263Z,96994.33
2018-12-15T16:52:24.567Z,96991.83
2018-12-15T16:54:50.699Z,96993.16
2018-12-15T16:57:16.573Z,96990.49
2018-12-15T16:59:42.436Z,96990.44
2018-12-15T17:02:10.145Z,96994.61
2018-12-15T17:04:36.276Z,96990.73
2018-12-15T17:07:04.017Z,96987.47
2018-12-15T17:09:29.888Z,96981.57
2018-12-15T17:11:58.688Z,96986.78
2018-12-15T17:14:24.550Z,96983.30
2018-12-15T17:16:53.717Z,96983.71
2018-12-15T17:19:19.919Z,96977.74
2018-12-15T17:21:49.592Z,96979.37
2018-12-15T17:24:16.200Z,96969.25
2018-12-15T17:26:43.333Z,96961.48
2018-12-15T17:29:09.252Z,96956.83
2018-12-15T17:31:35.247Z,96955.55
2018-12-15T17:34:01.201Z,96959.33
2018-12-15T17:36:30.806Z,96963.92
2018-12-15T17:38:56.846Z,96964.38
2018-12-15T17:41:22.754Z,96955.10
2018-12-15T17:43:49.620Z,96958.23
2018-12-15T17:46:15.484Z,96959.22
2018-12-15T17:48:44.392Z,96950.73
2018-12-15T17:51:10.428Z,96958.84
2018-12-15T17:53:40.169Z,96954.21
2018-12-15T17:56:09.646Z,96944.83
2018-12-15T17:58:35.564Z,96942.33
2018-12-15T18:01:01.495Z,96941.46
2018-12-15T18:03:27.881Z,96933.44
2018-12-15T18:05:53.802Z,96926.55
2018-12-15T18:08:19.739Z,96926.04
2018-12-15T18:10:45.636Z,96928.94
2018-12-15T18:13:11.540Z,96930.22
2018-12-15T18:15:40.844Z,96918.44
2018-12-15T18:18:06.778Z,96921.95
2018-12-15T18:20:34.673Z,96907.97
2018-12-15T18:23:00.859Z,96906.14
2018-12-15T18:25:30.252Z,96914.61
2018-12-15T18:27:56.113Z,96904.85
2018-12-15T18:30:25.230Z,96899.23
2018-12-15T18:32:51.136Z,96890.66
2018-12-15T18:35:19.060Z,96895.69
2018-12-15T18:37:44.955Z,96883.27
2018-12-15T18:40:14.713Z,96890.58
2018-12-15T18:42:40.602Z,96886.00
2018-12-15T18:45:06.775Z,96877.55
2018-12-15T18:47:32.649Z,96879.34
2018-12-15T18:49:58.533Z,96870.36
2018-12-15T18:52:25.370Z,96874.23
2018-12-15T18:54:51.259Z,96863.57
2018-12-15T18:57:20.323Z,96864.48
2018-12-15T18:59:46.187Z,96860.67
2018-12-15T19:02:14.549Z,96860.72
2018-12-15T19:04:40.436Z,96855.96
2018-12-15T19:07:09.722Z,96849.59
2018-12-15T19:09:36.005Z,96863.78
2018-12-15T19:12:04.974Z,96846.75
2018-12-15T19:14:30.878Z,96840.38
2018-12-15T19:16:58.677Z,96839.51
2018-12-15T19:19:24.628Z,96842.05
2018-12-15T19:21:50.477Z,96820.37
2018-12-15T19:24:16.319Z,96812.24
2018-12-15T19:26:42.258Z,96810.62
2018-12-15T19:29:11.778Z,96813.11
2018-12-15T19:31:37.642Z,96811.42
2018-12-15T19:34:06.730Z,96807.19
2018-12-15T19:36:32.601Z,96800.30
2018-12-15T19:39:01.635Z,96804.59
2018-12-15T19:41:27.565Z,96803.04
2018-12-15T19:43:55.367Z,96799.68
2018-12-15T19:46:21.279Z,96800.55
2018-12-15T19:48:51.013Z,96790.30
2018-12-15T19:51:16.882Z,96777.54
2018-12-15T19:53:44.740Z,96778.50
2018-12-15T19:56:10.626Z,96772.09
2018-12-15T19:58:36.535Z,96764.84
2018-12-15T20:01:02.429Z,96764.83
2018-12-15T20:03:28.330Z,96786.98
2018-12-15T20:05:57.427Z,96763.33
2018-12-15T20:08:23.359Z,96760.31
2018-12-15T20:10:51.075Z,96764.03
2018-12-15T20:13:16.965Z,96758.98
2018-12-15T20:15:46.774Z,96754.81
2018-12-15T20:18:12.638Z,96756.52
2018-12-15T20:20:40.377Z,96760.38
2018-12-15T20:23:06.305Z,96731.13
2018-12-15T20:25:35.291Z,96743.75
2018-12-15T20:28:01.164Z,96739.53
2018-12-15T20:30:31.003Z,96726.38
2018-12-15T20:32:56.897Z,96725.61
2018-12-15T20:35:22.768Z,96723.14
2018-12-15T20:37:48.660Z,96716.41
2018-12-15T20:40:14.595Z,96715.20
2018-12-15T20:42:42.655Z,96709.69
2018-12-15T20:45:08.703Z,96713.16
2018-12-15T20:47:36.503Z,96715.79
2018-12-15T20:50:03.343Z,96706.16
2018-12-15T20:52:31.191Z,96712.08
2018-12-15T20:54:57.112Z,96712.43
2018-12-15T20:57:26.010Z,96709.63
2018-12-15T20:59:51.945Z,96710.86
2018-12-15T21:02:19.827Z,96714.67
2018-12-15T21:04:45.735Z,96704.89
2018-12-15T21:07:14.595Z,96699.80
2018-12-15T21:09:40.551Z,96689.66
2018-12-15T21:12:06.434Z,96683.24
2018-12-15T21:14:32.340Z,96674.02
2018-12-15T21:16:58.284Z,96671.48
2018-12-15T21:19:27.827Z,96670.73
2018-12-15T21:21:53.774Z,96670.27
2018-12-15T21:24:21.735Z,96667.41
2018-12-15T21:26:47.617Z,96660.58
2018-12-15T21:29:17.558Z,96654.58
2018-12-15T21:31:43.439Z,96657.13
2018-12-15T21:34:10.856Z,96646.18
2018-12-15T21:36:36.848Z,96644.95
2018-12-15T21:39:05.213Z,96643.69
2018-12-15T21:41:31.113Z,96641.19
2018-12-15T21:44:00.179Z,96642.05
2018-12-15T21:46:26.175Z,96633.59
2018-12-15T21:48:52.122Z,96623.32
2018-12-15T21:51:18.066Z,96624.69
2018-12-15T21:53:43.951Z,96621.68
2018-12-15T21:56:13.468Z,96618.23
2018-12-15T21:58:39.372Z,96619.44
2018-12-15T22:01:07.174Z,96614.69
2018-12-15T22:03:33.080Z,96612.09
2018-12-15T22:06:02.814Z,96613.75
2018-12-15T22:08:29.091Z,96620.41
2018-12-15T22:10:57.490Z,96617.45
2018-12-15T22:13:23.351Z,96611.14
2018-12-15T22:15:52.452Z,96611.16
2018-12-15T22:18:18.379Z,96602.28
2018-12-15T22:20:45.487Z,96596.33
2018-12-15T22:23:11.350Z,96587.41
2018-12-15T22:25:37.273Z,96578.08
2018-12-15T22:28:03.187Z,96575.53
2018-12-15T22:30:29.105Z,96583.60
2018-12-15T22:32:58.979Z,96574.69
2018-12-15T22:35:24.918Z,96561.47
2018-12-15T22:37:52.625Z,96550.34
2018-12-15T22:40:18.506Z,96549.54
2018-12-15T22:42:48.272Z,96551.67
2018-12-15T22:45:14.190Z,96548.33
2018-12-15T22:47:41.981Z,96535.47
2018-12-15T22:50:08.140Z,96516.29
2018-12-15T22:52:37.520Z,96512.12
2018-12-15T22:55:03.836Z,96503.16
2018-12-15T22:57:31.273Z,96504.36
2018-12-15T22:59:57.139Z,96496.27
2018-12-15T23:02:23.047Z,96488.15
2018-12-15T23:04:48.924Z,96480.52
2018-12-15T23:07:14.813Z,96473.75
2018-12-15T23:09:44.076Z,96474.66
2018-12-15T23:12:09.959Z,96462.73
2018-12-15T23:14:37.789Z,96458.03
2018-12-15T23:17:03.660Z,96453.84
2018-12-15T23:19:33.470Z,96448.34
2018-12-15T23:21:59.371Z,96449.95
2018-12-15T23:24:27.242Z,96442.22
2018-12-15T23:26:53.150Z,96448.91
2018-12-15T23:29:21.073Z,96445.16
2018-12-15T23:31:46.988Z,96442.21
2018-12-15T23:34:15.764Z,96443.35
2018-12-15T23:36:41.627Z,96434.84
2018-12-15T23:39:07.543Z,96435.44
2018-12-15T23:41:33.414Z,96425.58
2018-12-15T23:43:59.301Z,96417.85
2018-12-15T23:46:29.262Z,96416.84
2018-12-15T23:48:55.217Z,96411.19
2018-12-15T23:51:24.317Z,96412.06
2018-12-15T23:53:50.234Z,96406.62
2018-12-15T23:56:18.038Z,96411.41
2018-12-15T23:58:43.940Z,96410.53
